Time;durP1;ratioP1;P1;durP2;ratioP2;P2;SDS_P1;SDS_P2;PMS_P1;PMS_P2;Temp;Humidity;BMP_temperature;BMP_pressure;BME280_temperature;BME280_humidity;BME280_pressure;Samples;Min_cycle;Max_cycle;Signal;HPM_P1;HPM_P2
2023/10/16 00:02:12;;;;;;;8.13;7.32;;;;;;;;;;5107934;27;20508;-74
2023/10/16 00:04:44;;;;;;;6.93;6.30;;;;;;;;;;5116492;27;20023;-76
2023/10/16 00:07:13;;;;;;;7.50;6.90;;;;;;;;;;5116788;27;20125;-76
2023/10/16 00:09:39;;;;;;;7.65;6.97;;;;;;;;;;5116260;27;20028;-74
2023/10/16 00:12:05;;;;;;;7.13;6.53;;;;;;;;;;5118114;27;20022;-74
2023/10/16 00:14:31;;;;;;;8.20;7.40;;;;;;;;;;5116466;27;20449;-73
2023/10/16 00:16:56;;;;;;;8.02;7.32;;;;;;;;;;5116311;27;20027;-74
2023/10/16 00:19:24;;;;;;;7.32;6.68;;;;;;;;;;5108618;27;20042;-75
2023/10/16 00:21:52;;;;;;;6.38;5.88;;;;;;;;;;5109431;27;20027;-76
2023/10/16 00:24:17;;;;;;;6.07;5.47;;;;;;;;;;5114872;27;20011;-74
2023/10/16 00:26:49;;;;;;;7.05;6.47;;;;;;;;;;5114195;27;20415;-74
2023/10/16 00:29:19;;;;;;;6.80;6.18;;;;;;;;;;5115431;27;20055;-76
2023/10/16 00:31:45;;;;;;;7.00;6.22;;;;;;;;;;5104325;28;20026;-77
2023/10/16 00:34:11;;;;;;;7.30;6.60;;;;;;;;;;5115595;27;20026;-75
2023/10/16 00:36:36;;;;;;;7.07;6.38;;;;;;;;;;5117779;27;20514;-76
2023/10/16 00:39:13;;;;;;;7.18;6.57;;;;;;;;;;5114232;28;20030;-75
2023/10/16 00:41:39;;;;;;;7.70;6.97;;;;;;;;;;5116702;28;20031;-81
2023/10/16 00:44:05;;;;;;;7.50;6.80;;;;;;;;;;5117245;28;20483;-74
2023/10/16 00:46:32;;;;;;;7.13;6.53;;;;;;;;;;5114134;28;20027;-75
2023/10/16 00:48:58;;;;;;;6.95;6.32;;;;;;;;;;5115117;28;20214;-74
2023/10/16 00:51:24;;;;;;;6.93;6.32;;;;;;;;;;5115623;28;21114;-73
2023/10/16 00:53:51;;;;;;;7.20;6.60;;;;;;;;;;5116783;28;20051;-74
2023/10/16 00:56:18;;;;;;;8.02;6.00;;;;;;;;;;5115101;27;20108;-72
2023/10/16 00:58:46;;;;;;;8.20;6.50;;;;;;;;;;5115032;28;20458;-74
2023/10/16 01:01:12;;;;;;;7.23;6.53;;;;;;;;;;5099415;28;20454;-74
2023/10/16 01:03:40;;;;;;;6.75;6.15;;;;;;;;;;5100105;28;20183;-74
2023/10/16 01:06:15;;;;;;;6.60;6.00;;;;;;;;;;5107075;27;20027;-74
2023/10/16 01:08:47;;;;;;;7.97;7.30;;;;;;;;;;5112810;28;20016;-75
2023/10/16 01:11:14;;;;;;;7.07;6.40;;;;;;;;;;5114188;27;20354;-73
2023/10/16 01:13:40;;;;;;;7.07;6.38;;;;;;;;;;5118516;27;20027;-72
2023/10/16 01:16:07;;;;;;;6.93;6.25;;;;;;;;;;5120534;27;20033;-74
2023/10/16 01:18:34;;;;;;;6.78;6.15;;;;;;;;;;5118344;27;20042;-75
2023/10/16 01:21:04;;;;;;;6.82;6.22;;;;;;;;;;5119647;27;20034;-73
2023/10/16 01:23:30;;;;;;;8.13;7.18;;;;;;;;;;5119841;27;20031;-73
2023/10/16 01:25:55;;;;;;;9.55;7.15;;;;;;;;;;5119365;27;20063;-73
2023/10/16 01:28:21;;;;;;;8.10;7.30;;;;;;;;;;5116200;27;20112;-73
2023/10/16 01:30:49;;;;;;;8.30;7.50;;;;;;;;;;5104808;27;20127;-72
2023/10/16 01:33:16;;;;;;;7.82;7.13;;;;;;;;;;5111403;27;20164;-72
2023/10/16 01:35:43;;;;;;;7.43;6.82;;;;;;;;;;5116284;27;20055;-73
2023/10/16 01:38:19;;;;;;;8.18;6.95;;;;;;;;;;5113383;27;20225;-76
2023/10/16 01:40:47;;;;;;;6.50;5.95;;;;;;;;;;5115962;27;20034;-75
2023/10/16 01:43:15;;;;;;;7.63;6.53;;;;;;;;;;5117450;27;20031;-73
2023/10/16 01:45:50;;;;;;;6.57;5.97;;;;;;;;;;5118496;27;20164;-72
2023/10/16 01:48:21;;;;;;;8.65;6.80;;;;;;;;;;5119406;27;20020;-72
2023/10/16 01:50:49;;;;;;;7.13;6.47;;;;;;;;;;5117209;27;20019;-73
2023/10/16 01:53:20;;;;;;;6.82;6.22;;;;;;;;;;5107088;27;20023;-75
2023/10/16 01:55:51;;;;;;;7.10;6.43;;;;;;;;;;5104816;27;20045;-77
2023/10/16 01:58:17;;;;;;;6.40;5.82;;;;;;;;;;5105313;27;20438;-73
2023/10/16 02:00:43;;;;;;;7.60;6.43;;;;;;;;;;5113722;27;20401;-74
2023/10/16 02:03:09;;;;;;;7.07;6.30;;;;;;;;;;5111672;27;20175;-74
2023/10/16 02:05:34;;;;;;;8.23;6.05;;;;;;;;;;5116820;27;20130;-75
2023/10/16 02:07:59;;;;;;;6.05;5.25;;;;;;;;;;5118554;27;20027;-73
2023/10/16 02:10:25;;;;;;;8.38;6.20;;;;;;;;;;5116893;27;20057;-73
2023/10/16 02:12:50;;;;;;;8.18;5.68;;;;;;;;;;5117908;27;20039;-77
2023/10/16 02:15:21;;;;;;;7.35;6.65;;;;;;;;;;5118533;27;20048;-73
2023/10/16 02:17:46;;;;;;;6.82;6.15;;;;;;;;;;5117275;27;20034;-76
2023/10/16 02:20:12;;;;;;;7.03;5.50;;;;;;;;;;5107840;27;20113;-72
2023/10/16 02:22:39;;;;;;;7.00;5.93;;;;;;;;;;5117571;27;20035;-72
2023/10/16 02:25:08;;;;;;;7.35;6.15;;;;;;;;;;5113107;27;20019;-73
2023/10/16 02:27:34;;;;;;;6.53;5.93;;;;;;;;;;5117183;27;20031;-72
2023/10/16 02:30:14;;;;;;;8.70;6.03;;;;;;;;;;5118007;27;20031;-72
2023/10/16 02:32:42;;;;;;;5.93;5.35;;;;;;;;;;5115164;27;20066;-74
2023/10/16 02:35:13;;;;;;;5.50;5.00;;;;;;;;;;5116441;27;20035;-73
2023/10/16 02:37:39;;;;;;;6.00;5.40;;;;;;;;;;5117068;27;20034;-73
2023/10/16 02:40:09;;;;;;;8.52;5.72;;;;;;;;;;5116007;27;20023;-73
2023/10/16 02:42:35;;;;;;;5.78;5.20;;;;;;;;;;5117696;27;20035;-71
2023/10/16 02:45:00;;;;;;;5.70;5.10;;;;;;;;;;5114509;27;20334;-74
2023/10/16 02:47:25;;;;;;;8.32;6.00;;;;;;;;;;5117983;27;20131;-71
2023/10/16 02:49:53;;;;;;;6.47;5.43;;;;;;;;;;5118156;27;20130;-73
2023/10/16 02:52:19;;;;;;;5.88;5.30;;;;;;;;;;5112931;27;20078;-71
2023/10/16 02:54:45;;;;;;;5.63;5.13;;;;;;;;;;5108618;27;20023;-73
2023/10/16 02:57:11;;;;;;;6.35;4.88;;;;;;;;;;5118907;27;20038;-71
2023/10/16 02:59:39;;;;;;;5.90;5.25;;;;;;;;;;5116833;27;20031;-72
2023/10/16 03:02:13;;;;;;;5.68;4.88;;;;;;;;;;5117923;27;20027;-71
2023/10/16 03:04:40;;;;;;;5.10;4.38;;;;;;;;;;5118374;27;20063;-72
2023/10/16 03:07:07;;;;;;;6.85;4.93;;;;;;;;;;5117374;27;20038;-71
2023/10/16 03:09:32;;;;;;;5.25;4.75;;;;;;;;;;5115817;27;20110;-75
2023/10/16 03:12:09;;;;;;;5.97;4.88;;;;;;;;;;5114966;27;20114;-73
2023/10/16 03:14:44;;;;;;;5.82;5.00;;;;;;;;;;5117882;27;20023;-71
2023/10/16 03:17:12;;;;;;;6.40;4.82;;;;;;;;;;5117269;27;20441;-75
2023/10/16 03:19:37;;;;;;;4.28;3.92;;;;;;;;;;5116419;27;20035;-72
2023/10/16 03:22:11;;;;;;;5.10;4.53;;;;;;;;;;5117463;27;20103;-72
2023/10/16 03:24:37;;;;;;;6.47;5.85;;;;;;;;;;5113551;27;20015;-74
2023/10/16 03:27:08;;;;;;;10.70;8.77;;;;;;;;;;5114249;27;20038;-76
2023/10/16 03:29:33;;;;;;;8.13;6.82;;;;;;;;;;5117061;27;20442;-74
2023/10/16 03:31:59;;;;;;;9.27;6.47;;;;;;;;;;5117458;27;20031;-72
2023/10/16 03:34:24;;;;;;;5.65;4.93;;;;;;;;;;5114171;27;20031;-73
2023/10/16 03:36:54;;;;;;;7.35;6.18;;;;;;;;;;5117863;27;20448;-73
2023/10/16 03:39:19;;;;;;;7.15;5.28;;;;;;;;;;5109015;27;20088;-73
2023/10/16 03:41:45;;;;;;;6.40;4.18;;;;;;;;;;5112783;27;20031;-71
2023/10/16 03:44:18;;;;;;;5.30;4.38;;;;;;;;;;5114029;27;20060;-70
2023/10/16 03:46:47;;;;;;;5.90;4.18;;;;;;;;;;5117841;27;20030;-71
2023/10/16 03:49:14;;;;;;;7.03;4.40;;;;;;;;;;5116020;27;20023;-71
2023/10/16 03:51:40;;;;;;;8.10;5.40;;;;;;;;;;5114041;27;20259;-74
2023/10/16 03:54:05;;;;;;;7.80;4.55;;;;;;;;;;5116557;27;20023;-72
2023/10/16 03:56:31;;;;;;;6.03;3.90;;;;;;;;;;5115905;27;20449;-74
2023/10/16 03:58:57;;;;;;;6.50;3.65;;;;;;;;;;5115415;27;20102;-71
2023/10/16 04:01:29;;;;;;;4.70;3.88;;;;;;;;;;5109470;27;20019;-71
2023/10/16 04:03:57;;;;;;;4.43;3.72;;;;;;;;;;5104919;27;20028;-71
2023/10/16 04:06:24;;;;;;;5.07;3.90;;;;;;;;;;5101785;27;20039;-72
2023/10/16 04:08:51;;;;;;;4.57;3.95;;;;;;;;;;5101375;27;20028;-72
2023/10/16 04:11:17;;;;;;;5.47;4.03;;;;;;;;;;5102499;27;20033;-72
2023/10/16 04:13:49;;;;;;;4.90;3.85;;;;;;;;;;5101578;27;20027;-72
2023/10/16 04:16:30;;;;;;;4.28;3.70;;;;;;;;;;5100902;27;20142;-72
2023/10/16 04:19:07;;;;;;;4.82;3.75;;;;;;;;;;5103027;27;20038;-76
2023/10/16 04:21:40;;;;;;;7.97;5.00;;;;;;;;;;5103019;27;20030;-75
2023/10/16 04:24:19;;;;;;;5.03;4.10;;;;;;;;;;5111475;27;20034;-72
2023/10/16 04:26:56;;;;;;;4.72;4.00;;;;;;;;;;5105251;27;20038;-76
2023/10/16 04:34:52;;;;;;;10.40;7.82;;;;;;;;;;5115299;28;20727;-71
2023/10/16 04:37:31;;;;;;;13.48;9.38;;;;;;;;;;5115798;27;20027;-72
2023/10/16 04:47:55;;;;;;;10.30;6.38;;;;;;;;;;5117492;27;20357;-72
2023/10/16 04:50:29;;;;;;;8.40;5.72;;;;;;;;;;5117228;27;20046;-71
2023/10/16 04:56:15;;;;;;;6.22;4.50;;;;;;;;;;5119427;27;20471;-71
2023/10/16 05:03:44;;;;;;;20.73;16.08;;;;;;;;;;5108649;27;20041;-71
2023/10/16 05:19:44;;;;;;;15.07;11.15;;;;;;;;;;5109812;27;20046;-74
2023/10/16 06:14:12;;;;;;;14.23;9.93;;;;;;;;;;5118606;27;20038;-71
2023/10/16 06:16:41;;;;;;;16.65;10.27;;;;;;;;;;5116057;27;20049;-71
2023/10/16 06:19:14;;;;;;;17.27;11.05;;;;;;;;;;5113647;27;20108;-71
2023/10/16 06:21:46;;;;;;;8.43;6.47;;;;;;;;;;5116513;27;20026;-71
2023/10/16 06:24:33;;;;;;;16.95;11.63;;;;;;;;;;5112111;27;20024;-74
2023/10/16 06:27:08;;;;;;;16.67;10.68;;;;;;;;;;5115606;27;20031;-71
2023/10/16 06:29:34;;;;;;;11.88;8.75;;;;;;;;;;5114822;27;20070;-71
2023/10/16 06:32:06;;;;;;;9.98;8.15;;;;;;;;;;5118227;27;20051;-72
2023/10/16 06:34:33;;;;;;;11.18;8.57;;;;;;;;;;5117663;27;20058;-72
2023/10/16 06:36:58;;;;;;;18.92;12.95;;;;;;;;;;5116656;27;20047;-73
2023/10/16 06:39:28;;;;;;;11.57;9.55;;;;;;;;;;5117426;27;20058;-71
2023/10/16 06:41:54;;;;;;;10.18;6.57;;;;;;;;;;5116661;27;20102;-71
2023/10/16 06:44:21;;;;;;;7.38;6.05;;;;;;;;;;5117014;27;20019;-73
2023/10/16 06:46:49;;;;;;;10.15;6.82;;;;;;;;;;5115595;27;20027;-71
2023/10/16 06:49:15;;;;;;;7.75;5.60;;;;;;;;;;5117470;27;20040;-72
2023/10/16 06:51:43;;;;;;;13.98;7.97;;;;;;;;;;5114959;27;20023;-71
2023/10/16 06:54:09;;;;;;;18.58;9.82;;;;;;;;;;5116870;27;20390;-71
2023/10/16 06:56:36;;;;;;;10.23;5.57;;;;;;;;;;5115639;27;20061;-71
2023/10/16 06:59:02;;;;;;;8.85;5.15;;;;;;;;;;5116791;27;20406;-71
2023/10/16 07:01:27;;;;;;;5.32;4.18;;;;;;;;;;5117403;27;20031;-73
2023/10/16 07:03:56;;;;;;;5.93;4.03;;;;;;;;;;5116042;27;20030;-71
2023/10/16 07:06:24;;;;;;;22.25;11.95;;;;;;;;;;5134047;27;20023;-72
2023/10/16 07:08:51;;;;;;;10.35;7.22;;;;;;;;;;5117033;27;20035;-71
2023/10/16 07:11:19;;;;;;;24.35;12.85;;;;;;;;;;5114581;27;20172;-72
2023/10/16 07:13:44;;;;;;;11.00;7.97;;;;;;;;;;5117220;27;20086;-71
2023/10/16 07:16:09;;;;;;;10.77;6.97;;;;;;;;;;5117132;27;20117;-70
2023/10/16 07:18:35;;;;;;;10.15;6.85;;;;;;;;;;5115907;27;20165;-71
2023/10/16 07:23:35;;;;;;;12.27;8.47;;;;;;;;;;5112974;27;20046;-71
2023/10/16 07:26:05;;;;;;;18.23;8.07;;;;;;;;;;5114710;27;20024;-72
2023/10/16 07:28:31;;;;;;;17.83;10.70;;;;;;;;;;5118344;27;20751;-71
2023/10/16 07:30:57;;;;;;;12.10;7.55;;;;;;;;;;5117559;27;20044;-72
2023/10/16 07:33:23;;;;;;;22.35;12.15;;;;;;;;;;5113790;27;20094;-74
2023/10/16 07:35:49;;;;;;;7.78;4.95;;;;;;;;;;5117204;27;20498;-71
2023/10/16 07:38:21;;;;;;;9.40;6.07;;;;;;;;;;5115858;27;20031;-72
2023/10/16 07:40:54;;;;;;;9.38;6.20;;;;;;;;;;5116692;27;20518;-72
2023/10/16 07:43:26;;;;;;;13.15;7.45;;;;;;;;;;5114876;27;20034;-74
2023/10/16 07:45:52;;;;;;;8.98;5.35;;;;;;;;;;5115665;27;20031;-74
2023/10/16 07:48:20;;;;;;;12.00;8.63;;;;;;;;;;5117637;27;20034;-72
2023/10/16 07:50:48;;;;;;;32.67;19.52;;;;;;;;;;5113758;27;20023;-73
2023/10/16 07:53:17;;;;;;;37.55;24.17;;;;;;;;;;5115747;27;20038;-71
2023/10/16 07:55:52;;;;;;;28.10;17.95;;;;;;;;;;5116213;27;20098;-72
2023/10/16 07:58:23;;;;;;;8.23;5.80;;;;;;;;;;5113595;27;20031;-71
2023/10/16 08:03:45;;;;;;;6.47;5.20;;;;;;;;;;5051049;28;20052;-71
2023/10/16 08:06:17;;;;;;;8.35;6.45;;;;;;;;;;5050263;28;20029;-72
2023/10/16 08:08:48;;;;;;;26.98;20.13;;;;;;;;;;5050059;28;20086;-72
2023/10/16 08:11:18;;;;;;;8.52;5.80;;;;;;;;;;5052147;28;20032;-71
2023/10/16 08:13:47;;;;;;;5.85;5.25;;;;;;;;;;5048315;28;20144;-71
2023/10/16 08:16:18;;;;;;;13.63;9.85;;;;;;;;;;5048412;28;20038;-70
2023/10/16 08:18:45;;;;;;;12.40;7.75;;;;;;;;;;5049862;28;20102;-72
2023/10/16 08:21:16;;;;;;;7.43;5.97;;;;;;;;;;5040544;28;20471;-73
2023/10/16 08:23:45;;;;;;;5.60;4.40;;;;;;;;;;5051620;28;20135;-72
2023/10/16 08:26:29;;;;;;;9.60;6.55;;;;;;;;;;5049396;28;20069;-74
2023/10/16 08:31:42;;;;;;;8.32;7.05;;;;;;;;;;5050708;28;20036;-73
2023/10/16 08:34:08;;;;;;;6.00;4.03;;;;;;;;;;5048381;28;20036;-72
2023/10/16 08:36:34;;;;;;;5.70;4.25;;;;;;;;;;5051290;28;20111;-71
2023/10/16 08:39:08;;;;;;;5.55;4.43;;;;;;;;;;5051499;28;20048;-72
2023/10/16 08:41:43;;;;;;;5.10;4.60;;;;;;;;;;5115035;28;20429;-74
2023/10/16 08:44:14;;;;;;;8.07;5.72;;;;;;;;;;5116758;27;20019;-71
2023/10/16 08:46:53;;;;;;;3.67;3.30;;;;;;;;;;5116534;28;20031;-76
2023/10/16 08:49:22;;;;;;;5.70;3.65;;;;;;;;;;5114982;28;20035;-73
2023/10/16 08:51:49;;;;;;;18.08;13.07;;;;;;;;;;5116104;28;20047;-71
2023/10/16 08:56:58;;;;;;;27.35;18.48;;;;;;;;;;5114189;28;20161;-71
2023/10/16 08:59:25;;;;;;;14.88;11.55;;;;;;;;;;5114619;28;20106;-71
2023/10/16 09:01:51;;;;;;;9.93;3.78;;;;;;;;;;5113911;27;20032;-71
2023/10/16 09:04:17;;;;;;;4.80;3.88;;;;;;;;;;5112865;28;20030;-71
2023/10/16 09:06:43;;;;;;;7.95;6.22;;;;;;;;;;5115580;28;20087;-71
2023/10/16 09:09:13;;;;;;;8.57;5.30;;;;;;;;;;5115515;27;20031;-72
2023/10/16 09:11:39;;;;;;;3.47;3.17;;;;;;;;;;5115620;27;20028;-71
2023/10/16 09:14:07;;;;;;;5.28;3.90;;;;;;;;;;5117636;27;20031;-71
2023/10/16 09:16:34;;;;;;;4.75;3.28;;;;;;;;;;5113970;28;20035;-72
2023/10/16 09:19:02;;;;;;;6.35;4.30;;;;;;;;;;5115650;27;20085;-74
2023/10/16 09:21:30;;;;;;;6.00;4.28;;;;;;;;;;5113052;27;20027;-71
2023/10/16 09:23:59;;;;;;;6.50;3.53;;;;;;;;;;5115078;28;20039;-72
2023/10/16 09:26:25;;;;;;;7.30;4.97;;;;;;;;;;5115760;27;20027;-71
2023/10/16 09:28:53;;;;;;;22.63;16.85;;;;;;;;;;5115242;27;20066;-71
2023/10/16 09:31:19;;;;;;;35.70;22.03;;;;;;;;;;5116076;27;20043;-71
2023/10/16 09:33:48;;;;;;;42.53;25.95;;;;;;;;;;5117274;27;20107;-74
2023/10/16 09:36:23;;;;;;;36.22;19.45;;;;;;;;;;5118362;27;20075;-72
2023/10/16 09:38:51;;;;;;;13.13;10.23;;;;;;;;;;5119412;27;20070;-72
2023/10/16 09:44:08;;;;;;;3.47;2.72;;;;;;;;;;5116627;27;20034;-72
2023/10/16 09:49:08;;;;;;;40.50;27.58;;;;;;;;;;5119746;27;20068;-71
2023/10/16 09:51:39;;;;;;;16.80;12.32;;;;;;;;;;5119367;27;20656;-71
2023/10/16 09:54:07;;;;;;;13.73;8.70;;;;;;;;;;5118526;27;20350;-72
2023/10/16 09:56:35;;;;;;;6.20;4.50;;;;;;;;;;5115436;27;20031;-72
2023/10/16 09:59:04;;;;;;;6.70;3.60;;;;;;;;;;5117772;27;20019;-71
2023/10/16 10:01:33;;;;;;;7.40;4.97;;;;;;;;;;5118873;27;20046;-74
2023/10/16 10:03:58;;;;;;;6.67;4.33;;;;;;;;;;5110725;27;20035;-71
2023/10/16 10:06:32;;;;;;;6.72;4.05;;;;;;;;;;5118068;27;20073;-72
2023/10/16 10:11:38;;;;;;;5.28;3.95;;;;;;;;;;5117185;27;20039;-71
2023/10/16 10:14:09;;;;;;;3.13;2.83;;;;;;;;;;5119459;27;20094;-71
2023/10/16 10:16:39;;;;;;;7.25;6.22;;;;;;;;;;5118550;27;20053;-74
2023/10/16 10:19:10;;;;;;;4.28;3.40;;;;;;;;;;5114885;27;20106;-74
2023/10/16 10:21:44;;;;;;;4.63;3.20;;;;;;;;;;5120058;27;20110;-72
2023/10/16 10:24:24;;;;;;;3.53;2.90;;;;;;;;;;5108011;27;20406;-71
2023/10/16 10:26:50;;;;;;;5.93;3.38;;;;;;;;;;5116049;27;20042;-73
2023/10/16 10:29:16;;;;;;;3.17;2.80;;;;;;;;;;5119108;27;20438;-71
2023/10/16 10:31:47;;;;;;;3.05;2.65;;;;;;;;;;5117700;27;20030;-72
2023/10/16 10:34:27;;;;;;;4.35;2.80;;;;;;;;;;5117800;27;20063;-72
2023/10/16 10:36:53;;;;;;;3.13;2.33;;;;;;;;;;5118023;27;20024;-74
2023/10/16 10:39:22;;;;;;;5.57;4.40;;;;;;;;;;5119607;27;20027;-74
2023/10/16 10:41:51;;;;;;;5.97;3.42;;;;;;;;;;5117407;27;20106;-72
2023/10/16 10:44:19;;;;;;;5.25;3.50;;;;;;;;;;5117095;27;20446;-71
2023/10/16 10:46:49;;;;;;;3.83;2.85;;;;;;;;;;5117695;27;20354;-74
2023/10/16 10:49:18;;;;;;;4.38;3.20;;;;;;;;;;5116466;27;20036;-74
2023/10/16 10:51:46;;;;;;;2.85;2.55;;;;;;;;;;5118547;27;20027;-71
2023/10/16 10:54:14;;;;;;;4.22;2.67;;;;;;;;;;5117952;27;20055;-72
2023/10/16 10:56:40;;;;;;;5.00;3.33;;;;;;;;;;5115245;27;20510;-72
2023/10/16 10:59:09;;;;;;;6.70;3.72;;;;;;;;;;5116344;27;20346;-71
2023/10/16 11:01:37;;;;;;;5.63;3.13;;;;;;;;;;5116990;27;20110;-71
2023/10/16 11:04:09;;;;;;;4.70;3.33;;;;;;;;;;5115879;27;20045;-71
2023/10/16 11:06:49;;;;;;;3.15;2.75;;;;;;;;;;5112902;27;20074;-73
2023/10/16 11:09:18;;;;;;;3.22;2.92;;;;;;;;;;5115196;27;20091;-71
2023/10/16 11:11:45;;;;;;;5.25;2.95;;;;;;;;;;5117073;27;20496;-74
2023/10/16 11:14:12;;;;;;;5.25;3.30;;;;;;;;;;5116716;27;20062;-71
2023/10/16 11:16:50;;;;;;;5.22;3.78;;;;;;;;;;5116344;27;20075;-75
2023/10/16 11:19:28;;;;;;;5.95;3.40;;;;;;;;;;5106174;27;20059;-72
2023/10/16 11:21:55;;;;;;;18.95;11.32;;;;;;;;;;5116840;27;20439;-71
2023/10/16 11:24:24;;;;;;;7.05;4.55;;;;;;;;;;5117528;27;20019;-72
2023/10/16 11:26:50;;;;;;;4.15;3.45;;;;;;;;;;5114933;27;20027;-71
2023/10/16 11:29:19;;;;;;;3.75;3.10;;;;;;;;;;5117518;27;20042;-72
2023/10/16 11:31:44;;;;;;;4.57;3.40;;;;;;;;;;5117736;27;20110;-72
2023/10/16 11:34:12;;;;;;;4.90;4.38;;;;;;;;;;5116254;27;20498;-71
2023/10/16 11:36:39;;;;;;;5.15;3.33;;;;;;;;;;5115467;27;20350;-74
2023/10/16 11:39:07;;;;;;;3.35;2.75;;;;;;;;;;5110379;27;20029;-72
2023/10/16 11:41:33;;;;;;;3.10;2.63;;;;;;;;;;5113530;27;20026;-71
2023/10/16 11:44:01;;;;;;;3.28;2.75;;;;;;;;;;5116712;27;20019;-73
2023/10/16 11:46:29;;;;;;;3.33;2.45;;;;;;;;;;5114657;27;20040;-71
2023/10/16 11:49:03;;;;;;;5.88;4.32;;;;;;;;;;5107056;27;20039;-71
2023/10/16 11:51:29;;;;;;;6.00;4.50;;;;;;;;;;5117860;27;20047;-72
2023/10/16 11:54:03;;;;;;;6.57;3.35;;;;;;;;;;5116193;27;20063;-71
2023/10/16 11:56:34;;;;;;;8.13;4.05;;;;;;;;;;5114211;27;20345;-72
2023/10/16 11:59:00;;;;;;;5.22;3.63;;;;;;;;;;5114508;27;20035;-71
2023/10/16 12:01:26;;;;;;;3.58;2.50;;;;;;;;;;5116235;27;20023;-71
2023/10/16 12:03:53;;;;;;;3.38;2.60;;;;;;;;;;5118496;27;20096;-72
2023/10/16 12:06:18;;;;;;;7.00;6.30;;;;;;;;;;5117702;27;20075;-71
2023/10/16 12:08:44;;;;;;;3.75;2.90;;;;;;;;;;5116056;27;20035;-74
2023/10/16 12:11:14;;;;;;;7.53;5.70;;;;;;;;;;5114953;27;20035;-72
2023/10/16 12:13:40;;;;;;;3.70;2.95;;;;;;;;;;5112681;27;20027;-73
2023/10/16 12:16:05;;;;;;;2.67;2.40;;;;;;;;;;5113140;27;20588;-71
2023/10/16 12:18:31;;;;;;;9.00;6.35;;;;;;;;;;5105058;27;20419;-71
2023/10/16 12:21:04;;;;;;;4.40;3.67;;;;;;;;;;5116367;27;20086;-73
2023/10/16 12:23:32;;;;;;;5.63;5.13;;;;;;;;;;5115225;27;20354;-73
2023/10/16 12:25:59;;;;;;;6.05;5.13;;;;;;;;;;5113628;27;20024;-71
2023/10/16 12:28:25;;;;;;;7.10;6.15;;;;;;;;;;5109340;27;20071;-73
2023/10/16 12:30:51;;;;;;;4.10;2.85;;;;;;;;;;5115081;27;20446;-72
2023/10/16 12:33:17;;;;;;;3.88;2.55;;;;;;;;;;5115792;27;20062;-72
2023/10/16 12:35:42;;;;;;;3.28;2.70;;;;;;;;;;5113929;27;20130;-71
2023/10/16 12:38:10;;;;;;;5.05;3.28;;;;;;;;;;5116562;27;20056;-71
2023/10/16 12:40:38;;;;;;;3.35;2.55;;;;;;;;;;5115006;27;20038;-74
2023/10/16 12:43:06;;;;;;;5.68;3.78;;;;;;;;;;5113906;28;20023;-73
2023/10/16 12:45:32;;;;;;;3.65;2.88;;;;;;;;;;5116636;27;20039;-72
2023/10/16 12:47:57;;;;;;;4.93;3.38;;;;;;;;;;5115464;27;20067;-71
2023/10/16 12:50:27;;;;;;;3.40;2.65;;;;;;;;;;5116979;28;21248;-71
2023/10/16 12:52:56;;;;;;;3.70;2.20;;;;;;;;;;5110827;28;20024;-72
2023/10/16 12:55:23;;;;;;;9.40;4.88;;;;;;;;;;5103225;28;20027;-73
2023/10/16 12:57:52;;;;;;;4.25;3.08;;;;;;;;;;5112280;27;20034;-72
2023/10/16 13:00:19;;;;;;;4.90;3.60;;;;;;;;;;5114269;28;20060;-73
2023/10/16 13:02:45;;;;;;;20.17;10.40;;;;;;;;;;5107101;27;20122;-70
2023/10/16 13:05:13;;;;;;;12.23;6.00;;;;;;;;;;5102703;28;20438;-70
2023/10/16 13:07:45;;;;;;;11.73;6.13;;;;;;;;;;5104907;27;20035;-71
2023/10/16 13:10:14;;;;;;;3.55;2.40;;;;;;;;;;5107952;27;20027;-71
2023/10/16 13:12:41;;;;;;;3.58;2.25;;;;;;;;;;5107373;27;20058;-74
2023/10/16 13:15:08;;;;;;;7.88;4.80;;;;;;;;;;5104159;27;20050;-70
2023/10/16 13:17:34;;;;;;;3.58;3.10;;;;;;;;;;5122197;27;20439;-72
2023/10/16 13:19:59;;;;;;;3.30;2.90;;;;;;;;;;5104346;27;20083;-74
2023/10/16 13:22:25;;;;;;;3.42;2.60;;;;;;;;;;5103357;27;20756;-72
2023/10/16 13:24:54;;;;;;;3.13;2.47;;;;;;;;;;5121189;27;20051;-76
2023/10/16 13:27:21;;;;;;;3.20;2.20;;;;;;;;;;5103100;28;20039;-78
2023/10/16 13:29:47;;;;;;;2.75;2.42;;;;;;;;;;5106208;27;20024;-78
2023/10/16 13:32:13;;;;;;;4.57;3.30;;;;;;;;;;5095922;27;20042;-78
2023/10/16 13:34:38;;;;;;;4.28;2.97;;;;;;;;;;5103137;28;20043;-74
2023/10/16 13:37:13;;;;;;;2.80;2.30;;;;;;;;;;5095945;27;20065;-74
2023/10/16 13:39:41;;;;;;;2.97;2.65;;;;;;;;;;5098053;27;20139;-74
2023/10/16 13:42:09;;;;;;;2.30;2.10;;;;;;;;;;5102016;27;20024;-76
2023/10/16 13:44:36;;;;;;;3.60;3.07;;;;;;;;;;5102645;27;20055;-73
2023/10/16 13:47:05;;;;;;;3.30;2.75;;;;;;;;;;5103534;27;20736;-74
2023/10/16 13:49:30;;;;;;;4.25;2.50;;;;;;;;;;5102074;27;20102;-74
2023/10/16 13:51:56;;;;;;;3.08;2.30;;;;;;;;;;5096653;27;20126;-73
2023/10/16 13:54:21;;;;;;;2.22;2.03;;;;;;;;;;5093710;27;20031;-73
2023/10/16 13:56:51;;;;;;;3.92;2.70;;;;;;;;;;5085386;27;20374;-75
2023/10/16 13:59:19;;;;;;;3.20;1.98;;;;;;;;;;5100862;27;20028;-73
2023/10/16 14:01:46;;;;;;;5.05;2.55;;;;;;;;;;5097759;27;20030;-72
2023/10/16 14:04:15;;;;;;;2.83;2.30;;;;;;;;;;5099481;27;20015;-76
2023/10/16 14:06:41;;;;;;;3.53;2.33;;;;;;;;;;5122926;27;20044;-73
2023/10/16 14:09:11;;;;;;;2.15;1.90;;;;;;;;;;5091839;27;20099;-74
2023/10/16 14:11:47;;;;;;;2.30;2.10;;;;;;;;;;5093915;27;20346;-75
2023/10/16 14:14:18;;;;;;;5.80;4.47;;;;;;;;;;5091588;27;20195;-76
2023/10/16 14:16:46;;;;;;;3.17;2.55;;;;;;;;;;5094062;27;20071;-76
2023/10/16 14:19:13;;;;;;;3.05;2.50;;;;;;;;;;5099334;27;20019;-72
2023/10/16 14:21:40;;;;;;;3.85;3.42;;;;;;;;;;5092874;27;20429;-73
2023/10/16 14:24:07;;;;;;;3.90;2.80;;;;;;;;;;5091583;27;20378;-74
2023/10/16 14:26:34;;;;;;;3.47;2.88;;;;;;;;;;5090609;27;20450;-72
2023/10/16 14:28:59;;;;;;;3.53;3.20;;;;;;;;;;5092271;27;20438;-73
2023/10/16 14:31:26;;;;;;;3.60;3.22;;;;;;;;;;5091814;27;20114;-74
2023/10/16 14:33:53;;;;;;;48.03;29.63;;;;;;;;;;5091827;27;20122;-73
2023/10/16 14:36:19;;;;;;;14.82;9.70;;;;;;;;;;5104495;27;20055;-72
2023/10/16 14:38:44;;;;;;;5.45;4.68;;;;;;;;;;5104247;27;20651;-73
2023/10/16 14:41:15;;;;;;;5.30;4.53;;;;;;;;;;5100856;27;20031;-74
2023/10/16 14:43:41;;;;;;;5.07;4.55;;;;;;;;;;5104632;27;20026;-76
2023/10/16 14:46:12;;;;;;;4.32;3.60;;;;;;;;;;5097352;27;20116;-74
2023/10/16 14:48:41;;;;;;;3.80;2.70;;;;;;;;;;5100730;27;20030;-74
2023/10/16 14:51:06;;;;;;;3.20;2.90;;;;;;;;;;5098022;27;20079;-74
2023/10/16 14:53:32;;;;;;;4.38;3.58;;;;;;;;;;5103534;27;20027;-77
2023/10/16 14:55:57;;;;;;;5.93;3.67;;;;;;;;;;5103537;27;20027;-74
2023/10/16 14:58:23;;;;;;;5.32;4.82;;;;;;;;;;5099750;27;20114;-75
2023/10/16 15:00:50;;;;;;;5.47;4.80;;;;;;;;;;5098912;27;20084;-76
2023/10/16 15:03:16;;;;;;;9.45;5.95;;;;;;;;;;5102400;27;20027;-75
2023/10/16 15:05:43;;;;;;;5.43;4.50;;;;;;;;;;5104030;27;20526;-78
2023/10/16 15:08:12;;;;;;;6.43;5.30;;;;;;;;;;5100135;27;20066;-78
2023/10/16 15:10:43;;;;;;;4.60;3.55;;;;;;;;;;5092838;27;20040;-78
2023/10/16 15:13:12;;;;;;;4.15;2.90;;;;;;;;;;5088699;27;20024;-77
2023/10/16 15:15:39;;;;;;;6.85;4.13;;;;;;;;;;5087394;28;20023;-77
2023/10/16 15:18:05;;;;;;;20.02;13.23;;;;;;;;;;5088203;27;20031;-73
2023/10/16 15:20:31;;;;;;;24.88;15.25;;;;;;;;;;5089370;27;20027;-72
2023/10/16 15:22:56;;;;;;;124.10;61.60;;;;;;;;;;5089939;27;20046;-74
2023/10/16 15:25:22;;;;;;;198.52;98.53;;;;;;;;;;5098441;27;20065;-77
2023/10/16 15:27:47;;;;;;;187.45;107.40;;;;;;;;;;5099407;27;20031;-74
2023/10/16 15:30:13;;;;;;;45.65;29.67;;;;;;;;;;5101770;27;20045;-77
2023/10/16 15:32:43;;;;;;;15.40;12.50;;;;;;;;;;5092406;27;20024;-78
2023/10/16 15:35:09;;;;;;;13.80;10.65;;;;;;;;;;5103306;27;20653;-75
2023/10/16 15:37:40;;;;;;;16.85;15.07;;;;;;;;;;5096085;27;20041;-79
2023/10/16 15:40:06;;;;;;;25.90;19.98;;;;;;;;;;5087289;27;20027;-76
2023/10/16 15:42:32;;;;;;;26.45;18.67;;;;;;;;;;5104111;27;20062;-75
2023/10/16 15:44:58;;;;;;;37.40;27.33;;;;;;;;;;5117145;27;20077;-74
2023/10/16 15:47:26;;;;;;;34.55;27.45;;;;;;;;;;5108855;27;20079;-76
2023/10/16 15:49:51;;;;;;;36.03;29.52;;;;;;;;;;5102443;27;20569;-74
2023/10/16 15:52:17;;;;;;;18.45;15.38;;;;;;;;;;5103251;27;20023;-77
2023/10/16 15:54:43;;;;;;;27.77;24.92;;;;;;;;;;5102214;27;20014;-77
2023/10/16 15:57:08;;;;;;;12.73;10.73;;;;;;;;;;5101096;27;20035;-73
2023/10/16 15:59:34;;;;;;;8.98;7.82;;;;;;;;;;5102410;27;20023;-77
2023/10/16 16:01:59;;;;;;;6.57;5.30;;;;;;;;;;5097834;27;20097;-80
2023/10/16 16:04:26;;;;;;;4.93;4.07;;;;;;;;;;5103147;27;20441;-73
2023/10/16 16:06:51;;;;;;;7.38;5.95;;;;;;;;;;5106692;27;20159;-73
2023/10/16 16:09:19;;;;;;;9.32;5.65;;;;;;;;;;5100689;27;20106;-72
2023/10/16 16:11:44;;;;;;;5.90;5.18;;;;;;;;;;5099943;27;20027;-78
2023/10/16 16:14:12;;;;;;;4.68;4.07;;;;;;;;;;5100341;27;20045;-74
2023/10/16 16:16:38;;;;;;;5.55;3.58;;;;;;;;;;5100417;27;20051;-72
2023/10/16 16:19:05;;;;;;;4.18;3.38;;;;;;;;;;5104156;27;20065;-74
2023/10/16 16:21:32;;;;;;;5.53;4.18;;;;;;;;;;5108035;27;20023;-76
2023/10/16 16:23:58;;;;;;;4.53;3.70;;;;;;;;;;5106730;27;22937;-74
2023/10/16 16:26:24;;;;;;;4.15;3.65;;;;;;;;;;5090185;27;20058;-79
2023/10/16 16:28:50;;;;;;;4.18;3.45;;;;;;;;;;5089574;27;20461;-78
2023/10/16 16:31:15;;;;;;;5.93;4.18;;;;;;;;;;5087653;28;20147;-81